Terminal Aerodrome Forecast
Issued by NWS Blacksburg, VA

Current Version | Previous Version | Graphics & Text | Print | Product List | Glossary On
Versions: 1 2 3 4 5 6 7 8 9 10 11 12 13 14 15 16
000
FTUS41 KRNK 260520
TAFBLF
TAF
KBLF 260520Z 2606/2706 29012G24KT P6SM -SHRA OVC005
     FM261500 28015G25KT P6SM BKN012
     FM261800 28012G20KT P6SM SCT025 BKN050
     FM270000 27006KT P6SM SCT100=

USA.gov is the U.S. government's official web portal to all federal, state and local government web resources and services.